KFRH/FRH METAR and TAF weather

Enter ICAO airport designator
Station Type Date Time Source
KFRH METAR 2022/01/28 00:35 UTC NOAA

KFRH 280035Z AUTO 27006KT 10SM SCT026 OVC033 00/M03 A3022 RMK AO1


Station Type Date Time Source
KFRH Decoded METAR 2022/01/28 00:35 UTC NOAA

Station name not available
Jan 27, 2022 - 07:35 PM EST / 2022.01.28 0035 UTC
Wind: from the W (270 degrees) at 7 MPH (6 KT):0
Visibility: 10 mile(s):0
Sky conditions: overcast
Temperature: 32 F (0 C)
Windchill: 24 F (-4 C):1
Dew Point: 26 F (-3 C)
Relative Humidity: 80%
Pressure (altimeter): 30.22 in. Hg (1023 hPa)
ob: KFRH 280035Z AUTO 27006KT 10SM SCT026 OVC033 00/M03 A3022 RMK AO1
cycle: 0

Station Type Date Time Source
KFRH TAF UTC NOAA

Error!

Example: see airport list